»·PEaware :: DCM206 KSNA-KBUR

DCM206 :: KSNA-KBUR

FLIGHT INFORMATION

Flight Status: Arrived
Operator:
DotCom
More flights by this operator :: More flights under this callsign
Pilot: Nick L. (7253)
Aircraft: BOEING 727-200
(B722)
More flights by this aircraft type
Origin: KSNA John Wayne-Orange Co
United States
Destination: KBUR Bob Hope-Burbank
United States
More flights between these airports :: More routes between these airports
Route: SLI V23 LAX LAX316 SILEX
File this flight plan on PilotEdge
Remarks: RMK / SIMBRIEF
Altitude:
(Current/Filed)
6,000ft
Speed:
(Current/Filed)
274kts
Departed: 01-Feb-21 03:54 PM
Arrived: 01-Feb-21 04:16 PM
Distance/Time
Traveled:
40nm/0:22
Distance/Time
To Go:
Arrived

Flight Plot

Page will automatically refresh every two minutes.


Map Options




Map Legend


Flown Route
Filed Route
Departure Airport
Arrival Airport
Navaid (VOR, NDB)
Fix

Horizontal Profiles

Position Reports

Time Latitude Longitude Heading Altitude Ground
Speed
01-Feb-21 15:26 33.672476 -117.866829 210 68ft 0kts
01-Feb-21 15:27 33.672476 -117.866829 210 68ft 0kts
01-Feb-21 15:28 33.672476 -117.866829 210 68ft 0kts
01-Feb-21 15:29 33.672476 -117.866829 210 68ft 0kts
01-Feb-21 15:30 33.672476 -117.866829 210 68ft 0kts
01-Feb-21 15:31 33.672476 -117.866829 210 68ft 0kts
01-Feb-21 15:32 33.672476 -117.866829 210 68ft 0kts
01-Feb-21 15:33 33.672476 -117.866829 210 68ft 0kts
01-Feb-21 15:34 33.672476 -117.866829 210 68ft 0kts
01-Feb-21 15:35 33.672476 -117.866829 210 68ft 0kts
01-Feb-21 15:36 33.672476 -117.866829 210 68ft 0kts
01-Feb-21 15:37 33.672476 -117.866829 210 68ft 0kts
01-Feb-21 15:38 33.672476 -117.866829 210 68ft 0kts
01-Feb-21 15:39 33.672476 -117.866829 210 68ft 0kts
01-Feb-21 15:40 33.672476 -117.866829 210 68ft 0kts
01-Feb-21 15:41 33.672476 -117.866829 210 68ft 0kts
01-Feb-21 15:42 33.672476 -117.866829 210 68ft 0kts
01-Feb-21 15:43 33.672476 -117.866829 210 68ft 0kts
01-Feb-21 15:44 33.672476 -117.866829 210 68ft 0kts
01-Feb-21 15:45 33.672476 -117.866829 210 68ft 0kts
01-Feb-21 15:46 33.672476 -117.866829 210 68ft 0kts
01-Feb-21 15:47 33.672476 -117.866829 210 68ft 0kts
01-Feb-21 15:48 33.672476 -117.866829 210 68ft 0kts
01-Feb-21 15:49 33.672476 -117.866829 210 68ft 0kts
01-Feb-21 15:50 33.672866 -117.867331 31 68ft 9kts
01-Feb-21 15:51 33.676946 -117.864673 27 68ft 20kts
01-Feb-21 15:52 33.680874 -117.863592 300 68ft 14kts
01-Feb-21 15:53 33.672743 -117.870726 207 73ft 140kts
01-Feb-21 15:54 33.633930 -117.888346 187 1745ft 172kts
01-Feb-21 15:55 33.584933 -117.907893 251 2974ft 210kts
01-Feb-21 15:56 33.620494 -117.958575 336 4641ft 236kts
01-Feb-21 15:57 33.674116 -118.005344 304 5992ft 253kts
01-Feb-21 15:58 33.716134 -118.075125 306 6019ft 259kts
01-Feb-21 15:59 33.759231 -118.144663 306 6020ft 259kts
01-Feb-21 16:00 33.801883 -118.214382 305 6022ft 259kts
01-Feb-21 16:01 33.844103 -118.284449 305 6025ft 259kts
01-Feb-21 16:02 33.886506 -118.354602 305 6004ft 260kts
01-Feb-21 16:03 33.933204 -118.420796 317 5998ft 261kts
01-Feb-21 16:04 33.993015 -118.467839 327 5988ft 240kts
01-Feb-21 16:05 34.045488 -118.502918 326 5967ft 192kts
01-Feb-21 16:06 34.095856 -118.537490 324 6021ft 236kts
01-Feb-21 16:07 34.158334 -118.583642 326 5994ft 279kts
01-Feb-21 16:08 34.226457 -118.618445 5 5956ft 256kts
01-Feb-21 16:09 34.287754 -118.595861 49 5165ft 226kts
01-Feb-21 16:10 34.284337 -118.525194 106 4247ft 220kts
01-Feb-21 16:11 34.243332 -118.492463 178 2360ft 195kts
01-Feb-21 16:12 34.222980 -118.441608 61 3473ft 205kts
01-Feb-21 16:13 34.250483 -118.392665 107 2646ft 167kts
01-Feb-21 16:14 34.220168 -118.362580 171 1136ft 135kts
01-Feb-21 16:15 34.195547 -118.355846 179 789ft 6kts
01-Feb-21 16:16 34.195348 -118.356775 345 789ft 0kts
01-Feb-21 16:17 34.196261 -118.357597 119 789ft 8kts
01-Feb-21 16:18 34.195689 -118.357632 279 789ft 0kts
01-Feb-21 16:19 34.195689 -118.357632 279 789ft 0kts

Navigation Log

Ident Type
Flight plan parsing failed, navigation log unavailable